sensor_id;sensor_type;location;lat;lon;timestamp;noise_LAeq;noise_LA_min;noise_LA_max;noise_LA01;noise_LA95
76767;Laerm;65707;52.362;6.588;2023-02-02T00:02:06;37.95;31.01;58.28;;
76767;Laerm;65707;52.362;6.588;2023-02-02T00:04:35;37.14;30.93;63.12;;
76767;Laerm;65707;52.362;6.588;2023-02-02T00:07:03;36.62;31.19;55.28;;
76767;Laerm;65707;52.362;6.588;2023-02-02T00:09:31;38.76;30.63;57.19;;
76767;Laerm;65707;52.362;6.588;2023-02-02T00:12:00;40.11;31.83;59.98;;
76767;Laerm;65707;52.362;6.588;2023-02-02T00:14:27;41.82;31.12;63.87;;
76767;Laerm;65707;52.362;6.588;2023-02-02T00:16:56;38.75;30.66;61.84;;
76767;Laerm;65707;52.362;6.588;2023-02-02T00:19:25;36.43;30.47;52.22;;
76767;Laerm;65707;52.362;6.588;2023-02-02T00:21:53;36.90;31.11;53.22;;
76767;Laerm;65707;52.362;6.588;2023-02-02T00:24:21;69.25;32.82;83.26;;
76767;Laerm;65707;52.362;6.588;2023-02-02T00:26:51;39.81;32.42;52.29;;
76767;Laerm;65707;52.362;6.588;2023-02-02T00:29:22;37.67;31.31;58.68;;
76767;Laerm;65707;52.362;6.588;2023-02-02T00:31:50;37.11;31.09;49.87;;
76767;Laerm;65707;52.362;6.588;2023-02-02T00:34:18;39.48;31.97;55.53;;
76767;Laerm;65707;52.362;6.588;2023-02-02T00:36:46;38.41;31.54;55.66;;
76767;Laerm;65707;52.362;6.588;2023-02-02T00:39:16;37.72;30.84;53.30;;
76767;Laerm;65707;52.362;6.588;2023-02-02T00:41:44;35.31;30.79;47.25;;
76767;Laerm;65707;52.362;6.588;2023-02-02T00:44:11;37.72;30.71;53.62;;
76767;Laerm;65707;52.362;6.588;2023-02-02T00:46:57;39.43;31.05;67.10;;
76767;Laerm;65707;52.362;6.588;2023-02-02T00:49:24;37.99;30.46;63.33;;
76767;Laerm;65707;52.362;6.588;2023-02-02T00:51:50;37.72;30.75;54.71;;
76767;Laerm;65707;52.362;6.588;2023-02-02T00:54:17;35.62;31.33;47.65;;
76767;Laerm;65707;52.362;6.588;2023-02-02T00:56:44;39.81;30.58;55.12;;
76767;Laerm;65707;52.362;6.588;2023-02-02T00:59:11;44.07;31.36;63.68;;
76767;Laerm;65707;52.362;6.588;2023-02-02T01:01:38;36.87;30.99;54.05;;
76767;Laerm;65707;52.362;6.588;2023-02-02T01:04:07;36.51;30.77;55.03;;
76767;Laerm;65707;52.362;6.588;2023-02-02T01:06:34;35.47;30.69;52.14;;
76767;Laerm;65707;52.362;6.588;2023-02-02T01:09:02;36.22;31.07;45.58;;
76767;Laerm;65707;52.362;6.588;2023-02-02T01:11:29;38.69;32.76;54.13;;
76767;Laerm;65707;52.362;6.588;2023-02-02T01:13:56;52.01;33.96;71.69;;
76767;Laerm;65707;52.362;6.588;2023-02-02T01:16:23;54.60;31.47;70.36;;
76767;Laerm;65707;52.362;6.588;2023-02-02T01:18:50;36.53;31.26;48.99;;
76767;Laerm;65707;52.362;6.588;2023-02-02T01:21:19;39.85;33.04;54.64;;
76767;Laerm;65707;52.362;6.588;2023-02-02T01:23:46;36.45;31.70;52.35;;
76767;Laerm;65707;52.362;6.588;2023-02-02T01:26:14;37.81;31.40;59.90;;
76767;Laerm;65707;52.362;6.588;2023-02-02T01:28:42;38.68;30.82;64.04;;
76767;Laerm;65707;52.362;6.588;2023-02-02T01:31:11;37.27;30.66;62.50;;
76767;Laerm;65707;52.362;6.588;2023-02-02T01:33:39;35.41;30.75;47.22;;
76767;Laerm;65707;52.362;6.588;2023-02-02T01:36:10;43.04;31.56;69.81;;
76767;Laerm;65707;52.362;6.588;2023-02-02T01:38:38;36.29;31.48;45.37;;
76767;Laerm;65707;52.362;6.588;2023-02-02T01:41:09;39.61;30.96;62.53;;
76767;Laerm;65707;52.362;6.588;2023-02-02T01:43:54;37.28;31.15;60.05;;
76767;Laerm;65707;52.362;6.588;2023-02-02T01:46:24;39.40;31.33;52.58;;
76767;Laerm;65707;52.362;6.588;2023-02-02T01:49:00;37.04;30.99;58.86;;
76767;Laerm;65707;52.362;6.588;2023-02-02T01:51:37;38.00;30.84;56.42;;
76767;Laerm;65707;52.362;6.588;2023-02-02T01:54:12;36.11;30.81;47.53;;
76767;Laerm;65707;52.362;6.588;2023-02-02T01:56:47;39.64;31.18;59.32;;
76767;Laerm;65707;52.362;6.588;2023-02-02T01:59:16;39.48;30.77;59.48;;
76767;Laerm;65707;52.362;6.588;2023-02-02T02:01:45;52.30;31.60;68.04;;
76767;Laerm;65707;52.362;6.588;2023-02-02T02:04:13;38.17;31.07;60.11;;
76767;Laerm;65707;52.362;6.588;2023-02-02T02:06:41;40.53;31.55;52.64;;
76767;Laerm;65707;52.362;6.588;2023-02-02T02:09:10;35.07;30.36;48.30;;
76767;Laerm;65707;52.362;6.588;2023-02-02T02:11:36;37.06;30.79;60.01;;
76767;Laerm;65707;52.362;6.588;2023-02-02T02:14:09;35.89;31.41;48.34;;
76767;Laerm;65707;52.362;6.588;2023-02-02T02:17:13;37.54;30.87;54.60;;
76767;Laerm;65707;52.362;6.588;2023-02-02T02:20:27;37.03;31.22;59.46;;
76767;Laerm;65707;52.362;6.588;2023-02-02T02:24:10;35.17;30.87;47.12;;
76767;Laerm;65707;52.362;6.588;2023-02-02T02:27:40;35.41;30.63;52.05;;
76767;Laerm;65707;52.362;6.588;2023-02-02T02:30:40;36.15;30.40;57.28;;
76767;Laerm;65707;52.362;6.588;2023-02-02T02:33:23;36.47;31.11;51.31;;
76767;Laerm;65707;52.362;6.588;2023-02-02T02:36:02;35.65;30.80;58.65;;
76767;Laerm;65707;52.362;6.588;2023-02-02T02:38:40;36.82;31.10;47.94;;
76767;Laerm;65707;52.362;6.588;2023-02-02T02:41:14;36.65;31.49;51.98;;
76767;Laerm;65707;52.362;6.588;2023-02-02T02:43:50;36.12;30.97;51.54;;
76767;Laerm;65707;52.362;6.588;2023-02-02T02:46:19;36.33;30.92;44.61;;
76767;Laerm;65707;52.362;6.588;2023-02-02T02:48:49;36.59;31.27;45.22;;
76767;Laerm;65707;52.362;6.588;2023-02-02T02:51:42;36.43;30.62;52.46;;
76767;Laerm;65707;52.362;6.588;2023-02-02T02:54:10;37.90;31.07;53.19;;
76767;Laerm;65707;52.362;6.588;2023-02-02T02:56:54;36.22;30.69;53.60;;
76767;Laerm;65707;52.362;6.588;2023-02-02T02:59:35;36.41;31.25;41.50;;
76767;Laerm;65707;52.362;6.588;2023-02-02T03:02:24;38.93;31.66;57.00;;
76767;Laerm;65707;52.362;6.588;2023-02-02T03:05:07;35.68;31.52;46.08;;
76767;Laerm;65707;52.362;6.588;2023-02-02T03:07:43;37.61;32.11;50.18;;
76767;Laerm;65707;52.362;6.588;2023-02-02T03:10:16;37.04;31.33;45.10;;
76767;Laerm;65707;52.362;6.588;2023-02-02T03:12:46;35.91;31.02;40.95;;
76767;Laerm;65707;52.362;6.588;2023-02-02T03:15:15;40.97;31.65;56.37;;
76767;Laerm;65707;52.362;6.588;2023-02-02T03:17:46;38.86;31.96;60.00;;
76767;Laerm;65707;52.362;6.588;2023-02-02T03:20:16;38.30;32.79;55.80;;
76767;Laerm;65707;52.362;6.588;2023-02-02T03:22:43;37.50;31.70;65.49;;
76767;Laerm;65707;52.362;6.588;2023-02-02T03:25:10;36.53;31.89;50.98;;
76767;Laerm;65707;52.362;6.588;2023-02-02T03:27:37;38.83;32.09;61.64;;
76767;Laerm;65707;52.362;6.588;2023-02-02T03:30:08;40.28;33.78;60.51;;
76767;Laerm;65707;52.362;6.588;2023-02-02T03:32:36;41.66;33.34;70.80;;
76767;Laerm;65707;52.362;6.588;2023-02-02T03:35:04;38.76;33.53;56.52;;
76767;Laerm;65707;52.362;6.588;2023-02-02T03:37:33;44.00;33.88;67.72;;
76767;Laerm;65707;52.362;6.588;2023-02-02T03:40:00;40.85;32.39;61.20;;
76767;Laerm;65707;52.362;6.588;2023-02-02T03:42:27;44.47;34.29;72.41;;
76767;Laerm;65707;52.362;6.588;2023-02-02T03:44:54;43.13;33.83;68.32;;
76767;Laerm;65707;52.362;6.588;2023-02-02T03:47:21;40.52;33.96;58.81;;
76767;Laerm;65707;52.362;6.588;2023-02-02T03:49:47;40.07;33.31;56.46;;
76767;Laerm;65707;52.362;6.588;2023-02-02T03:52:14;41.19;32.06;64.99;;
76767;Laerm;65707;52.362;6.588;2023-02-02T03:54:42;42.05;33.93;63.17;;
76767;Laerm;65707;52.362;6.588;2023-02-02T03:57:09;71.00;34.90;85.02;;
76767;Laerm;65707;52.362;6.588;2023-02-02T03:59:36;42.44;32.87;67.38;;
76767;Laerm;65707;52.362;6.588;2023-02-02T04:02:05;39.36;32.48;52.60;;
76767;Laerm;65707;52.362;6.588;2023-02-02T04:04:32;39.92;32.63;52.45;;
76767;Laerm;65707;52.362;6.588;2023-02-02T04:06:59;40.62;32.99;53.86;;
76767;Laerm;65707;52.362;6.588;2023-02-02T04:09:26;39.88;33.86;52.18;;
76767;Laerm;65707;52.362;6.588;2023-02-02T04:11:54;59.18;35.36;78.20;;
76767;Laerm;65707;52.362;6.588;2023-02-02T04:14:21;38.62;34.06;56.75;;
76767;Laerm;65707;52.362;6.588;2023-02-02T04:16:48;40.09;34.35;60.62;;
76767;Laerm;65707;52.362;6.588;2023-02-02T04:19:15;42.38;35.26;62.72;;
76767;Laerm;65707;52.362;6.588;2023-02-02T04:21:41;42.04;35.92;62.23;;
76767;Laerm;65707;52.362;6.588;2023-02-02T04:24:11;46.30;37.64;66.42;;
76767;Laerm;65707;52.362;6.588;2023-02-02T04:26:38;45.37;37.46;71.76;;
76767;Laerm;65707;52.362;6.588;2023-02-02T04:29:06;45.76;38.83;67.06;;
76767;Laerm;65707;52.362;6.588;2023-02-02T04:31:33;50.77;40.94;74.69;;
76767;Laerm;65707;52.362;6.588;2023-02-02T04:34:00;49.92;40.49;73.32;;
76767;Laerm;65707;52.362;6.588;2023-02-02T04:36:28;49.68;39.79;76.52;;
76767;Laerm;65707;52.362;6.588;2023-02-02T04:38:55;57.19;41.41;74.94;;
76767;Laerm;65707;52.362;6.588;2023-02-02T04:41:22;60.56;40.62;77.37;;
76767;Laerm;65707;52.362;6.588;2023-02-02T04:43:49;48.87;39.24;72.83;;
76767;Laerm;65707;52.362;6.588;2023-02-02T04:46:17;48.70;40.43;70.21;;
76767;Laerm;65707;52.362;6.588;2023-02-02T04:48:47;49.39;39.93;74.76;;
76767;Laerm;65707;52.362;6.588;2023-02-02T04:51:14;46.30;38.26;71.57;;
76767;Laerm;65707;52.362;6.588;2023-02-02T04:53:43;55.45;37.56;77.70;;
76767;Laerm;65707;52.362;6.588;2023-02-02T04:56:14;48.88;40.49;71.40;;
76767;Laerm;65707;52.362;6.588;2023-02-02T04:58:42;55.42;40.56;74.22;;
76767;Laerm;65707;52.362;6.588;2023-02-02T05:01:10;49.91;40.82;73.12;;
76767;Laerm;65707;52.362;6.588;2023-02-02T05:03:39;48.39;40.30;71.78;;
76767;Laerm;65707;52.362;6.588;2023-02-02T05:06:06;48.32;39.72;70.75;;
76767;Laerm;65707;52.362;6.588;2023-02-02T05:08:33;59.13;40.62;76.35;;
76767;Laerm;65707;52.362;6.588;2023-02-02T05:11:06;60.70;39.95;76.74;;
76767;Laerm;65707;52.362;6.588;2023-02-02T05:13:33;48.62;39.95;73.14;;
76767;Laerm;65707;52.362;6.588;2023-02-02T05:16:00;51.67;41.61;76.78;;
76767;Laerm;65707;52.362;6.588;2023-02-02T05:18:27;48.94;41.05;73.75;;
76767;Laerm;65707;52.362;6.588;2023-02-02T05:20:58;48.96;41.50;70.59;;
76767;Laerm;65707;52.362;6.588;2023-02-02T05:23:25;49.76;42.10;72.68;;
76767;Laerm;65707;52.362;6.588;2023-02-02T05:25:53;55.94;42.54;77.35;;
76767;Laerm;65707;52.362;6.588;2023-02-02T05:28:21;52.50;42.69;76.85;;
76767;Laerm;65707;52.362;6.588;2023-02-02T05:30:48;56.30;42.85;71.41;;
76767;Laerm;65707;52.362;6.588;2023-02-02T05:33:15;45.78;40.98;66.42;;
76767;Laerm;65707;52.362;6.588;2023-02-02T05:35:44;47.15;40.07;71.69;;
76767;Laerm;65707;52.362;6.588;2023-02-02T05:38:12;57.00;41.77;75.38;;
76767;Laerm;65707;52.362;6.588;2023-02-02T05:40:41;48.54;40.15;71.24;;
76767;Laerm;65707;52.362;6.588;2023-02-02T05:43:08;61.76;42.69;76.49;;
76767;Laerm;65707;52.362;6.588;2023-02-02T05:45:35;48.70;41.59;66.86;;
76767;Laerm;65707;52.362;6.588;2023-02-02T05:48:02;49.85;42.15;76.77;;
76767;Laerm;65707;52.362;6.588;2023-02-02T05:50:29;49.83;41.86;71.12;;
76767;Laerm;65707;52.362;6.588;2023-02-02T05:52:56;54.43;42.74;73.22;;
76767;Laerm;65707;52.362;6.588;2023-02-02T05:55:25;48.28;42.76;65.45;;
76767;Laerm;65707;52.362;6.588;2023-02-02T05:57:51;48.20;42.66;70.94;;
76767;Laerm;65707;52.362;6.588;2023-02-02T06:00:19;55.91;42.97;70.00;;
76767;Laerm;65707;52.362;6.588;2023-02-02T06:02:46;49.18;42.64;67.87;;
76767;Laerm;65707;52.362;6.588;2023-02-02T06:05:13;51.63;43.21;69.78;;
76767;Laerm;65707;52.362;6.588;2023-02-02T06:07:40;53.35;42.33;77.31;;
76767;Laerm;65707;52.362;6.588;2023-02-02T06:10:07;58.50;43.28;76.24;;
76767;Laerm;65707;52.362;6.588;2023-02-02T06:12:36;62.89;43.43;79.31;;
76767;Laerm;65707;52.362;6.588;2023-02-02T06:15:04;50.28;43.35;66.48;;
76767;Laerm;65707;52.362;6.588;2023-02-02T06:17:31;48.22;42.89;61.57;;
76767;Laerm;65707;52.362;6.588;2023-02-02T06:19:57;54.92;43.44;70.51;;
76767;Laerm;65707;52.362;6.588;2023-02-02T06:22:24;48.65;41.83;63.37;;
76767;Laerm;65707;52.362;6.588;2023-02-02T06:24:51;57.61;42.98;74.94;;
76767;Laerm;65707;52.362;6.588;2023-02-02T06:27:19;48.13;42.51;59.69;;
76767;Laerm;65707;52.362;6.588;2023-02-02T06:29:47;55.82;43.08;69.25;;
76767;Laerm;65707;52.362;6.588;2023-02-02T06:32:14;56.54;49.61;68.02;;
76767;Laerm;65707;52.362;6.588;2023-02-02T06:34:41;52.08;48.86;63.01;;
76767;Laerm;65707;52.362;6.588;2023-02-02T06:37:08;59.45;48.39;75.23;;
76767;Laerm;65707;52.362;6.588;2023-02-02T06:39:34;52.88;49.26;61.76;;
76767;Laerm;65707;52.362;6.588;2023-02-02T06:42:01;62.44;48.65;77.26;;
76767;Laerm;65707;52.362;6.588;2023-02-02T06:44:28;52.22;48.32;57.91;;
76767;Laerm;65707;52.362;6.588;2023-02-02T06:46:56;52.65;48.63;59.81;;
76767;Laerm;65707;52.362;6.588;2023-02-02T06:49:23;52.37;48.11;61.51;;
76767;Laerm;65707;52.362;6.588;2023-02-02T06:51:50;50.00;44.46;56.05;;
76767;Laerm;65707;52.362;6.588;2023-02-02T06:54:16;54.46;42.81;74.25;;
76767;Laerm;65707;52.362;6.588;2023-02-02T06:56:43;55.91;42.76;72.86;;
76767;Laerm;65707;52.362;6.588;2023-02-02T06:59:10;53.48;42.71;70.36;;
76767;Laerm;65707;52.362;6.588;2023-02-02T07:01:37;56.04;43.48;70.12;;
76767;Laerm;65707;52.362;6.588;2023-02-02T07:04:05;49.55;43.96;65.75;;
76767;Laerm;65707;52.362;6.588;2023-02-02T07:06:32;56.07;42.14;76.08;;
76767;Laerm;65707;52.362;6.588;2023-02-02T07:08:59;60.26;42.60;75.07;;
76767;Laerm;65707;52.362;6.588;2023-02-02T07:11:26;67.34;44.10;80.18;;
76767;Laerm;65707;52.362;6.588;2023-02-02T07:13:56;49.33;43.64;66.54;;
76767;Laerm;65707;52.362;6.588;2023-02-02T07:16:22;49.98;43.80;65.01;;
76767;Laerm;65707;52.362;6.588;2023-02-02T07:18:49;50.46;42.61;75.48;;
76767;Laerm;65707;52.362;6.588;2023-02-02T07:21:20;59.78;44.96;77.66;;
76767;Laerm;65707;52.362;6.588;2023-02-02T07:23:48;51.41;45.36;67.54;;
76767;Laerm;65707;52.362;6.588;2023-02-02T07:26:17;57.86;42.53;75.97;;
76767;Laerm;65707;52.362;6.588;2023-02-02T07:28:45;53.72;44.01;70.09;;
76767;Laerm;65707;52.362;6.588;2023-02-02T07:31:14;60.29;43.46;88.68;;
76767;Laerm;65707;52.362;6.588;2023-02-02T07:33:42;50.55;45.17;73.17;;
76767;Laerm;65707;52.362;6.588;2023-02-02T07:36:09;49.86;42.90;63.38;;
76767;Laerm;65707;52.362;6.588;2023-02-02T07:38:37;56.95;42.89;74.20;;
76767;Laerm;65707;52.362;6.588;2023-02-02T07:41:04;61.16;42.24;79.88;;
76767;Laerm;65707;52.362;6.588;2023-02-02T07:43:31;62.10;43.46;78.21;;
76767;Laerm;65707;52.362;6.588;2023-02-02T07:45:59;50.45;43.70;73.05;;
76767;Laerm;65707;52.362;6.588;2023-02-02T07:48:28;59.15;43.75;76.88;;
76767;Laerm;65707;52.362;6.588;2023-02-02T07:50:58;51.50;44.59;73.06;;
76767;Laerm;65707;52.362;6.588;2023-02-02T07:53:26;57.90;44.74;76.36;;
76767;Laerm;65707;52.362;6.588;2023-02-02T07:56:05;50.22;43.32;67.01;;
76767;Laerm;65707;52.362;6.588;2023-02-02T07:58:32;55.94;43.86;76.20;;
76767;Laerm;65707;52.362;6.588;2023-02-02T08:01:01;53.16;44.16;70.79;;
76767;Laerm;65707;52.362;6.588;2023-02-02T08:03:30;53.08;43.65;69.90;;
76767;Laerm;65707;52.362;6.588;2023-02-02T08:05:58;51.38;43.81;77.73;;
76767;Laerm;65707;52.362;6.588;2023-02-02T08:08:26;57.81;43.62;74.91;;
76767;Laerm;65707;52.362;6.588;2023-02-02T08:10:54;56.26;43.80;74.24;;
76767;Laerm;65707;52.362;6.588;2023-02-02T08:13:21;58.08;43.66;75.21;;
76767;Laerm;65707;52.362;6.588;2023-02-02T08:15:48;55.30;43.61;75.49;;
76767;Laerm;65707;52.362;6.588;2023-02-02T08:18:15;48.51;42.89;66.24;;
76767;Laerm;65707;52.362;6.588;2023-02-02T08:20:42;64.61;43.05;78.65;;
76767;Laerm;65707;52.362;6.588;2023-02-02T08:23:08;50.89;43.29;67.93;;
76767;Laerm;65707;52.362;6.588;2023-02-02T08:25:40;49.78;42.93;73.02;;
76767;Laerm;65707;52.362;6.588;2023-02-02T08:28:08;49.72;43.19;71.38;;
76767;Laerm;65707;52.362;6.588;2023-02-02T08:30:35;56.16;44.15;72.24;;
76767;Laerm;65707;52.362;6.588;2023-02-02T08:33:02;49.02;42.80;70.00;;
76767;Laerm;65707;52.362;6.588;2023-02-02T08:35:29;50.61;42.22;72.49;;
76767;Laerm;65707;52.362;6.588;2023-02-02T08:37:56;56.32;43.86;74.24;;
76767;Laerm;65707;52.362;6.588;2023-02-02T08:40:23;60.74;42.03;78.74;;
76767;Laerm;65707;52.362;6.588;2023-02-02T08:42:53;49.70;43.42;69.10;;
76767;Laerm;65707;52.362;6.588;2023-02-02T08:45:21;50.39;43.04;73.40;;
76767;Laerm;65707;52.362;6.588;2023-02-02T08:47:48;68.30;43.34;80.56;;
76767;Laerm;65707;52.362;6.588;2023-02-02T08:50:16;49.19;42.49;65.51;;
76767;Laerm;65707;52.362;6.588;2023-02-02T08:52:43;50.42;42.72;72.39;;
76767;Laerm;65707;52.362;6.588;2023-02-02T08:55:10;64.19;42.14;82.51;;
76767;Laerm;65707;52.362;6.588;2023-02-02T08:57:38;49.46;42.83;69.63;;
76767;Laerm;65707;52.362;6.588;2023-02-02T09:00:07;52.48;41.68;67.80;;
76767;Laerm;65707;52.362;6.588;2023-02-02T09:02:35;49.26;42.17;66.74;;
76767;Laerm;65707;52.362;6.588;2023-02-02T09:05:02;53.82;43.58;70.74;;
76767;Laerm;65707;52.362;6.588;2023-02-02T09:07:28;54.97;42.72;75.31;;
76767;Laerm;65707;52.362;6.588;2023-02-02T09:09:57;61.24;43.90;76.42;;
76767;Laerm;65707;52.362;6.588;2023-02-02T09:12:25;48.27;42.43;66.67;;
76767;Laerm;65707;52.362;6.588;2023-02-02T09:14:52;47.24;41.01;67.03;;
76767;Laerm;65707;52.362;6.588;2023-02-02T09:17:19;48.11;43.44;65.43;;
76767;Laerm;65707;52.362;6.588;2023-02-02T09:19:48;65.07;44.36;76.94;;
76767;Laerm;65707;52.362;6.588;2023-02-02T09:22:14;49.00;43.18;65.15;;
76767;Laerm;65707;52.362;6.588;2023-02-02T09:24:41;54.85;43.89;74.40;;
76767;Laerm;65707;52.362;6.588;2023-02-02T09:27:08;49.03;42.21;64.66;;
76767;Laerm;65707;52.362;6.588;2023-02-02T09:29:35;53.10;42.02;70.69;;
76767;Laerm;65707;52.362;6.588;2023-02-02T09:32:02;52.89;42.26;71.11;;
76767;Laerm;65707;52.362;6.588;2023-02-02T09:34:29;51.61;43.61;79.22;;
76767;Laerm;65707;52.362;6.588;2023-02-02T09:36:57;49.23;42.40;65.36;;
76767;Laerm;65707;52.362;6.588;2023-02-02T09:39:24;55.52;42.52;73.27;;
76767;Laerm;65707;52.362;6.588;2023-02-02T09:42:20;63.79;41.69;80.57;;
76767;Laerm;65707;52.362;6.588;2023-02-02T09:45:01;46.86;41.15;62.36;;
76767;Laerm;65707;52.362;6.588;2023-02-02T09:47:51;69.26;41.11;83.92;;
76767;Laerm;65707;52.362;6.588;2023-02-02T09:50:33;58.61;43.15;78.11;;
76767;Laerm;65707;52.362;6.588;2023-02-02T09:53:12;52.48;43.66;69.17;;
76767;Laerm;65707;52.362;6.588;2023-02-02T09:55:43;55.50;42.31;76.15;;
76767;Laerm;65707;52.362;6.588;2023-02-02T09:58:18;48.08;41.12;66.68;;
76767;Laerm;65707;52.362;6.588;2023-02-02T10:00:55;54.92;42.32;70.11;;
76767;Laerm;65707;52.362;6.588;2023-02-02T10:03:33;48.16;42.03;70.59;;
76767;Laerm;65707;52.362;6.588;2023-02-02T10:06:13;47.69;41.79;61.90;;
76767;Laerm;65707;52.362;6.588;2023-02-02T10:08:52;47.72;40.51;66.29;;
76767;Laerm;65707;52.362;6.588;2023-02-02T10:11:32;61.35;41.95;77.73;;
76767;Laerm;65707;52.362;6.588;2023-02-02T10:14:08;54.84;41.09;74.03;;
76767;Laerm;65707;52.362;6.588;2023-02-02T10:16:40;65.31;41.31;80.95;;
76767;Laerm;65707;52.362;6.588;2023-02-02T10:19:10;66.81;42.55;79.67;;
76767;Laerm;65707;52.362;6.588;2023-02-02T10:21:45;63.49;42.98;80.63;;
76767;Laerm;65707;52.362;6.588;2023-02-02T10:24:19;48.05;42.43;62.11;;
76767;Laerm;65707;52.362;6.588;2023-02-02T10:26:50;48.00;42.79;60.84;;
76767;Laerm;65707;52.362;6.588;2023-02-02T10:29:32;49.04;42.75;67.91;;
76767;Laerm;65707;52.362;6.588;2023-02-02T10:32:13;56.21;41.43;76.19;;
76767;Laerm;65707;52.362;6.588;2023-02-02T10:35:02;50.69;41.68;66.82;;
76767;Laerm;65707;52.362;6.588;2023-02-02T10:37:37;48.50;42.19;66.48;;
76767;Laerm;65707;52.362;6.588;2023-02-02T10:40:30;61.04;43.52;77.91;;
76767;Laerm;65707;52.362;6.588;2023-02-02T10:46:19;48.84;41.63;63.07;;
76767;Laerm;65707;52.362;6.588;2023-02-02T10:48:48;47.38;40.96;65.09;;
76767;Laerm;65707;52.362;6.588;2023-02-02T10:51:22;59.26;42.01;77.86;;
76767;Laerm;65707;52.362;6.588;2023-02-02T10:53:55;47.09;40.67;60.41;;
76767;Laerm;65707;52.362;6.588;2023-02-02T10:56:34;54.86;42.14;73.20;;
76767;Laerm;65707;52.362;6.588;2023-02-02T10:59:08;46.39;41.57;58.87;;
76767;Laerm;65707;52.362;6.588;2023-02-02T11:01:37;55.46;42.94;70.03;;
76767;Laerm;65707;52.362;6.588;2023-02-02T11:04:03;48.71;42.07;56.33;;
76767;Laerm;65707;52.362;6.588;2023-02-02T11:06:48;54.60;43.05;73.83;;
76767;Laerm;65707;52.362;6.588;2023-02-02T11:09:20;55.79;42.86;74.52;;
76767;Laerm;65707;52.362;6.588;2023-02-02T11:11:53;59.40;41.34;77.50;;
76767;Laerm;65707;52.362;6.588;2023-02-02T11:14:33;50.06;42.88;65.70;;
76767;Laerm;65707;52.362;6.588;2023-02-02T11:17:04;47.76;42.04;61.22;;
76767;Laerm;65707;52.362;6.588;2023-02-02T11:19:34;59.34;42.63;78.13;;
76767;Laerm;65707;52.362;6.588;2023-02-02T11:22:03;47.72;41.09;75.71;;
76767;Laerm;65707;52.362;6.588;2023-02-02T11:24:37;55.02;43.07;74.94;;
76767;Laerm;65707;52.362;6.588;2023-02-02T11:27:13;47.85;41.73;57.26;;
76767;Laerm;65707;52.362;6.588;2023-02-02T11:29:45;54.28;42.21;71.53;;
76767;Laerm;65707;52.362;6.588;2023-02-02T11:32:26;47.40;41.84;63.13;;
76767;Laerm;65707;52.362;6.588;2023-02-02T11:35:15;48.65;41.21;66.83;;
76767;Laerm;65707;52.362;6.588;2023-02-02T11:37:58;56.42;41.91;73.26;;
76767;Laerm;65707;52.362;6.588;2023-02-02T11:40:31;57.69;43.23;76.55;;
76767;Laerm;65707;52.362;6.588;2023-02-02T11:43:04;62.75;42.49;79.43;;
76767;Laerm;65707;52.362;6.588;2023-02-02T11:45:36;59.13;41.53;78.09;;
76767;Laerm;65707;52.362;6.588;2023-02-02T11:48:12;47.46;40.76;61.25;;
76767;Laerm;65707;52.362;6.588;2023-02-02T11:50:44;59.59;40.51;77.62;;
76767;Laerm;65707;52.362;6.588;2023-02-02T11:53:22;54.57;43.40;75.08;;
76767;Laerm;65707;52.362;6.588;2023-02-02T11:55:51;48.81;43.84;62.60;;
76767;Laerm;65707;52.362;6.588;2023-02-02T11:58:23;55.87;42.90;73.53;;
76767;Laerm;65707;52.362;6.588;2023-02-02T12:00:56;54.46;41.50;70.73;;
76767;Laerm;65707;52.362;6.588;2023-02-02T12:03:28;46.10;40.47;61.52;;
76767;Laerm;65707;52.362;6.588;2023-02-02T12:05:56;47.36;41.51;57.58;;
76767;Laerm;65707;52.362;6.588;2023-02-02T12:08:23;57.75;43.25;74.78;;
76767;Laerm;65707;52.362;6.588;2023-02-02T12:10:59;60.83;41.48;77.02;;
76767;Laerm;65707;52.362;6.588;2023-02-02T12:13:49;49.50;42.81;66.52;;
76767;Laerm;65707;52.362;6.588;2023-02-02T12:16:38;49.48;42.89;73.27;;
76767;Laerm;65707;52.362;6.588;2023-02-02T12:19:54;61.69;41.96;77.44;;
76767;Laerm;65707;52.362;6.588;2023-02-02T12:22:48;48.47;42.65;63.10;;
76767;Laerm;65707;52.362;6.588;2023-02-02T12:25:51;54.13;42.65;74.64;;
76767;Laerm;65707;52.362;6.588;2023-02-02T12:28:37;46.48;41.75;61.07;;
76767;Laerm;65707;52.362;6.588;2023-02-02T12:31:22;54.44;42.85;70.06;;
76767;Laerm;65707;52.362;6.588;2023-02-02T12:34:00;50.32;41.99;70.66;;
76767;Laerm;65707;52.362;6.588;2023-02-02T12:36:46;55.10;40.94;73.00;;
76767;Laerm;65707;52.362;6.588;2023-02-02T12:39:32;53.93;40.43;73.90;;
76767;Laerm;65707;52.362;6.588;2023-02-02T12:42:22;59.61;41.54;76.89;;
76767;Laerm;65707;52.362;6.588;2023-02-02T12:48:28;47.14;42.64;64.57;;
76767;Laerm;65707;52.362;6.588;2023-02-02T12:51:19;58.15;43.13;77.23;;
76767;Laerm;65707;52.362;6.588;2023-02-02T12:54:23;54.03;41.76;74.26;;
76767;Laerm;65707;52.362;6.588;2023-02-02T12:57:01;49.90;41.61;65.09;;
76767;Laerm;65707;52.362;6.588;2023-02-02T13:00:03;54.36;42.03;70.46;;
76767;Laerm;65707;52.362;6.588;2023-02-02T13:02:39;50.90;42.80;80.86;;
76767;Laerm;65707;52.362;6.588;2023-02-02T13:05:37;47.92;41.68;58.23;;
76767;Laerm;65707;52.362;6.588;2023-02-02T13:08:11;47.60;40.17;57.03;;
76767;Laerm;65707;52.362;6.588;2023-02-02T13:10:46;60.27;42.29;76.27;;
76767;Laerm;65707;52.362;6.588;2023-02-02T13:13:18;57.59;42.92;74.78;;
76767;Laerm;65707;52.362;6.588;2023-02-02T13:15:53;58.32;43.27;78.52;;
76767;Laerm;65707;52.362;6.588;2023-02-02T13:18:26;47.89;41.77;55.85;;
76767;Laerm;65707;52.362;6.588;2023-02-02T13:21:01;47.51;42.07;54.13;;
76767;Laerm;65707;52.362;6.588;2023-02-02T13:23:33;47.88;42.88;55.56;;
76767;Laerm;65707;52.362;6.588;2023-02-02T13:26:06;65.63;44.79;81.62;;
76767;Laerm;65707;52.362;6.588;2023-02-02T13:28:42;56.13;42.50;72.91;;
76767;Laerm;65707;52.362;6.588;2023-02-02T13:31:16;54.07;43.08;67.45;;
76767;Laerm;65707;52.362;6.588;2023-02-02T13:33:59;52.15;43.65;68.65;;
76767;Laerm;65707;52.362;6.588;2023-02-02T13:36:34;49.90;44.01;58.38;;
76767;Laerm;65707;52.362;6.588;2023-02-02T13:39:14;63.75;42.79;80.92;;
76767;Laerm;65707;52.362;6.588;2023-02-02T13:41:44;60.97;44.31;78.82;;
76767;Laerm;65707;52.362;6.588;2023-02-02T13:44:20;48.82;43.00;61.71;;
76767;Laerm;65707;52.362;6.588;2023-02-02T13:46:56;47.68;42.36;57.95;;
76767;Laerm;65707;52.362;6.588;2023-02-02T13:49:29;67.98;42.77;83.58;;
76767;Laerm;65707;52.362;6.588;2023-02-02T13:52:17;65.78;41.96;81.97;;
76767;Laerm;65707;52.362;6.588;2023-02-02T13:55:26;57.40;43.31;74.77;;
76767;Laerm;65707;52.362;6.588;2023-02-02T14:00:59;54.74;43.31;70.45;;
76767;Laerm;65707;52.362;6.588;2023-02-02T14:03:32;51.28;44.79;65.04;;
76767;Laerm;65707;52.362;6.588;2023-02-02T14:06:05;66.32;43.27;81.76;;
76767;Laerm;65707;52.362;6.588;2023-02-02T14:08:36;55.18;44.72;75.91;;
76767;Laerm;65707;52.362;6.588;2023-02-02T14:11:20;60.87;43.72;78.56;;
76767;Laerm;65707;52.362;6.588;2023-02-02T14:13:51;49.83;43.91;60.36;;
76767;Laerm;65707;52.362;6.588;2023-02-02T14:16:49;50.18;43.49;62.90;;
76767;Laerm;65707;52.362;6.588;2023-02-02T14:19:52;59.54;45.25;78.48;;
76767;Laerm;65707;52.362;6.588;2023-02-02T14:22:45;50.93;43.43;61.90;;
76767;Laerm;65707;52.362;6.588;2023-02-02T14:25:48;50.84;44.48;59.38;;